Flight Track Log - Related Links

Times and Time Zones

All times are in EDT time to prevent confusion due to time zone crossing. See the N1455R flight status page for this flight to view local times or setup timezone preferences in your user account.

Time Position Orientation Groundspeed Altitude Reporting Facility
EDT Latitude Longitude Course Direction KTS MPH feet Rate Location/Type
Sun 02:08:14 PM 41.6675 -70.9672 279° West 73 84 500  Level Boston Center
Sun 02:09:02 PM 41.6700 -70.9894 279° West 91 105 1,300 804 Climbing Boston Center
Sun 02:09:51 PM 41.6767 -71.0142 290° West 93 107 1,800 577 Climbing Boston Center
Sun 02:10:46 PM 41.6833 -71.0475 285° West 101 116 2,300 496 Climbing Boston Center
Sun 02:12:04 PM 41.6881 -71.0975 277° West 105 121 2,900 478 Climbing Boston Center
Sun 02:13:04 PM 41.6925 -71.1333 279° West 98 113 3,400 522 Climbing Boston Center
Sun 02:13:59 PM 41.6950 -71.1639 276° West 89 102 3,900 574 Climbing Boston Center
Sun 02:14:59 PM 41.6994 -71.1944 281° West 88 101 4,500 559 Climbing Boston Center
Sun 02:15:57 PM 41.7042 -71.2278 281° West 90 104 5,000 532 Climbing Boston Center
Sun 02:17:03 PM 41.7064 -71.2639 275° West 90 104 5,600 496 Climbing Boston Center
Sun 02:18:10 PM 41.7111 -71.3000 280° West 91 105 6,100 567 Climbing Boston Center
Sun 02:19:10 PM 41.7136 -71.3333 276° West 90 104 6,800 595 Climbing Boston Center
Sun 02:20:11 PM 41.7158 -71.3667 275° West 91 105 7,300 429 Climbing Boston Center
Sun 02:21:02 PM 41.7183 -71.3944 277° West 91 105 7,600 385 Climbing Boston Center
Sun 02:22:00 PM 41.7228 -71.4333 279° West 91 105 8,000 197 Climbing Boston Center
Sun 02:23:04 PM 41.7189 -71.4750 263° West 120 138 8,000  Level Boston Center
Sun 02:24:04 PM 41.7172 -71.5167 267° West 121 139 8,000  Level Boston Center
Sun 02:25:11 PM 41.7133 -71.5697 264° West 122 140 8,000  Level Boston Center
Sun 02:26:12 PM 41.7097 -71.6142 264° West 121 139 8,000  Level Boston Center
Sun 02:27:06 PM 41.7058 -71.6558 263° West 123 142 8,000  Level Boston Center
Sun 02:28:07 PM 41.7019 -71.7033 264° West 118 136 8,000  Level Boston Center
Sun 02:29:08 PM 41.7000 -71.7478 267° West 122 140 8,000  Level Boston Center
Sun 02:30:21 PM 41.6983 -71.8006 268° West 122 140 8,000  Level Boston Center
Sun 02:31:21 PM 41.6944 -71.8478 264° West 123 142 8,000  Level Boston Center
Sun 02:32:22 PM 41.6906 -71.8981 264° West 124 143 8,000  Level Boston Center
Sun 02:33:13 PM 41.6864 -71.9314 261° West 123 142 8,000  Level Boston Center
Sun 02:34:13 PM 41.6847 -71.9786 267° West 121 139 8,000  Level Boston Center
Sun 02:34:22 PM 41.6825 -71.9897 255° West 122 140 8,000  Level Boston Center
Sun 02:35:20 PM 41.6786 -72.0314 263° West 122 140 8,000  Level Boston Center
Sun 02:36:09 PM 41.6786 -72.0703 270° West 124 143 8,000  Level Boston Center
Sun 02:37:09 PM 41.6725 -72.1150 260° West 122 140 8,000  Level Boston Center
Sun 02:38:09 PM 41.6706 -72.1594 267° West 123 142 8,000  Level Boston Center
Sun 02:39:10 PM 41.6667 -72.2067 264° West 124 143 8,000  Level Boston Center
Sun 02:40:10 PM 41.6625 -72.2539 263° West 123 142 8,000  Level Boston Center
Sun 02:41:14 PM 41.6481 -72.2956 245° Southwest 124 143 8,000  Level Boston Center
Sun 02:42:14 PM 41.6375 -72.3372 251° West 122 140 8,000  Level Boston Center
Sun 02:43:15 PM 41.6250 -72.3817 249° West 122 140 8,000 -198 Level Boston Center
Sun 02:44:15 PM 41.6106 -72.4289 248° West 132 152 7,600 -417 Descending Boston Center
Sun 02:45:10 PM 41.6000 -72.4733 252° West 144 166 7,200 -493 Descending Boston Center
Sun 02:46:29 PM 41.5814 -72.5428 250° West 148 170 6,500 -507 Descending Boston Center
Sun 02:47:32 PM 41.5667 -72.5900 247° West 145 167 6,000 -254 Descending Boston Center
Sun 02:48:27 PM 41.5542 -72.6314 248° West 133 153 6,000  Level Boston Center
Sun 02:49:27 PM 41.5394 -72.6786 247° West 127 146 6,000  Level Boston Center
Sun 02:50:28 PM 41.5289 -72.7231 252° West 127 146 6,000  Level Boston Center
Sun 02:52:40 PM 41.5000 -72.8167 248° West 125 144 6,000  Level New York TRACON
Sun 02:53:41 PM 41.4833 -72.8500 236° Southwest 133 153 6,000  Level New York TRACON
Sun 02:54:35 PM 41.4833 -72.9000 270° West 132 152 6,000  Level New York TRACON
Sun 02:55:40 PM 41.4667 -72.9500 246° West 126 145 6,000  Level New York TRACON
Sun 02:56:40 PM 41.4333 -72.9667 201° Southwest 141 162 6,000  Level New York TRACON
Sun 02:57:40 PM 41.4000 -72.9667 180° South 140 161 6,000  Level New York TRACON
Sun 02:58:40 PM 41.3667 -72.9667 180° South 137 158 6,000  Level New York TRACON
Sun 02:59:40 PM 41.3333 -72.9833 201° Southwest 122 140 6,000  Level New York TRACON
Sun 03:00:35 PM 41.3333 -73.0167 270° West 106 122 6,000  Level New York TRACON
Sun 03:01:40 PM 41.3167 -73.0667 246° West 108 124 6,000  Level New York TRACON
Sun 03:02:35 PM 41.3167 -73.1000 270° West 103 119 6,000  Level New York TRACON
Sun 03:03:40 PM 41.3167 -73.1500 270° West 104 120 6,000  Level New York TRACON
Sun 03:04:35 PM 41.3167 -73.1833 270° West 103 119 6,000  Level New York TRACON
Sun 03:05:40 PM 41.3167 -73.2167 270° West 103 119 6,000  Level New York TRACON
Sun 03:06:40 PM 41.3000 -73.2500 236° Southwest 104 120 6,000  Level New York TRACON
Sun 03:07:40 PM 41.3000 -73.3000 270° West 104 120 6,000  Level New York TRACON
Sun 03:08:40 PM 41.3000 -73.3333 270° West 106 122 6,000  Level New York TRACON
Sun 03:09:40 PM 41.3000 -73.3833 270° West 119 137 6,000  Level New York TRACON
Sun 03:10:40 PM 41.3000 -73.4167 270° West 134 154 6,000  Level New York TRACON
Sun 03:12:00 PM 41.2882 -73.4700 254° West  Level FlightAware Approximate
Sun 03:12:40 PM 41.2833 -73.5167 254° West 135 155 6,000  Level New York TRACON
Sun 03:13:41 PM 41.2833 -73.5667 270° West 128 147 6,000 -149 Level New York TRACON
Sun 03:14:41 PM 41.2833 -73.6167 270° West 139 160 5,700 -400 Descending New York TRACON
Sun 03:15:41 PM 41.2667 -73.6667 246° West 143 165 5,200 -233 Descending New York TRACON
Sun 03:17:00 PM 41.2623 -73.7245 264° West  Level FlightAware Approximate
Sun 03:17:41 PM 41.2667 -73.7667 264° West 124 143 5,000  Level New York TRACON
Sun 03:18:41 PM 41.2667 -73.8167 270° West 129 148 5,000 -150 Level New York TRACON
Sun 03:19:41 PM 41.2500 -73.8500 236° Southwest 127 146 4,700 -403 Descending New York TRACON
Sun 03:20:40 PM 41.2500 -73.9000 270° West 148 170 4,200 -350 Descending New York TRACON
Sun 03:21:41 PM 41.2500 -73.9500 270° West 136 157 4,000 -99 Descending New York TRACON
Sun 03:22:41 PM 41.2333 -74.0000 246° West 130 150 4,000  Level New York TRACON
Sun 03:23:41 PM 41.2333 -74.0500 270° West 133 153 4,000 -100 Level New York TRACON
Sun 03:24:41 PM 41.2000 -74.0667 201° Southwest 146 168 3,800 -350 Descending New York TRACON
Sun 03:25:41 PM 41.1667 -74.1000 217° Southwest 141 162 3,300 -500 Descending New York TRACON
Sun 03:26:41 PM 41.1333 -74.1167 201° Southwest 152 175 2,800 -133 Descending New York TRACON
Sun 03:28:41 PM 41.0667 -74.1667 209° Southwest 117 135 2,900 -33 Climbing New York TRACON
Sun 03:29:41 PM 41.0333 -74.2000 217° Southwest 118 136 2,700 -450 Descending New York TRACON
Sun 03:30:41 PM 41.0000 -74.2167 201° Southwest 139 160 2,000 -350 Descending New York TRACON
Sun 03:31:41 PM 40.9833 -74.2333 217° Southwest 112 129 2,000  Level New York TRACON
Sun 03:32:41 PM 40.9500 -74.2667 217° Southwest 116 133 2,000  Level New York TRACON
Sun 03:33:41 PM 40.9333 -74.2833 217° Southwest 117 135 2,000  Level New York TRACON
Sun 03:34:41 PM 40.9000 -74.3167 217° Southwest 119 137 2,000  Level New York TRACON
Sun 03:35:41 PM 40.8833 -74.3333 217° Southwest 112 129 2,000 -300 Level New York TRACON
Sun 03:36:41 PM 40.8500 -74.3667 217° Southwest 109 125 1,400 -450 Descending New York TRACON
Sun 03:37:41 PM 40.8333 -74.3833 217° Southwest 103 119 1,100 -300 Descending New York TRACON
Sun 03:39:00 PM 40.7882 -74.3984 194° South  Level FlightAware Approximate
Sun 03:46:00 PM 40.7833 -74.4000 212° Southwest  Level FlightAware Approximate
Sun 03:47:00 PM 40.7993 -74.4149 212° Southwest  Level Estimated
Sun 03:48:00 PM 40.7993 -74.4149 212° Southwest  Level Estimated
Sun 03:49:00 PM 40.7993 -74.4149 212° Southwest  Level Estimated

Login

Don't have an account? Register now (free) for customized features, flight alerts, and more!